Renville, Minnesota
Current Conditions -  °F | °C
As of 9:33 PM on Friday 19 Dec 2014 (Local Time) from KOVL Reporting Station
Overcast Overcast  
Wind Chill: 26°   Ceiling: 1300
Heat Index: 32°   Visibility: 7mi
Dew Point: 30°   Wind: 7mph
Humidity: 93%   Direction: 180°S
Pressure: 30.1"   Gusts: NA
Location:  44.79°N, 95.21°W
Report Text: KOVL 200333Z AUTO 18006KT 7SM OVC013 00/M01 A3010 RMK AO2
Loading
Personal Weather Stations






























Interactive Weather Map New forecast layout! Learn more

10-Day Weather Forecast

Advertisements
Track Severe Weather on mobile